createdAt,value
2018-12-14T00:00:55.410Z,22.87
2018-12-14T00:03:27.755Z,17.57
2018-12-14T00:06:00.348Z,15.57
2018-12-14T00:08:30.970Z,14.93
2018-12-14T00:11:01.281Z,16.40
2018-12-14T00:13:32.121Z,15.73
2018-12-14T00:16:02.681Z,15.33
2018-12-14T00:18:33.271Z,16.07
2018-12-14T00:21:03.826Z,17.37
2018-12-14T00:23:34.711Z,18.43
2018-12-14T00:26:06.238Z,15.40
2018-12-14T00:28:37.358Z,15.27
2018-12-14T00:31:08.349Z,14.07
2018-12-14T00:33:39.092Z,15.67
2018-12-14T00:36:09.522Z,15.67
2018-12-14T00:38:40.646Z,14.33
2018-12-14T00:41:11.099Z,15.10
2018-12-14T00:43:42.271Z,15.30
2018-12-14T00:46:12.648Z,14.90
2018-12-14T00:48:43.426Z,14.67
2018-12-14T00:51:14.269Z,15.57
2018-12-14T00:53:45.288Z,16.17
2018-12-14T00:56:16.011Z,18.00
2018-12-14T00:58:47.157Z,17.83
2018-12-14T01:01:17.803Z,15.73
2018-12-14T01:03:50.621Z,15.20
2018-12-14T01:06:21.586Z,15.47
2018-12-14T01:08:52.544Z,14.70
2018-12-14T01:11:23.682Z,17.10
2018-12-14T01:13:54.425Z,16.57
2018-12-14T01:16:26.207Z,15.73
2018-12-14T01:18:57.370Z,14.63
2018-12-14T01:21:28.423Z,14.37
2018-12-14T01:24:00.677Z,14.63
2018-12-14T01:26:31.675Z,16.77
2018-12-14T01:29:02.332Z,15.07
2018-12-14T01:31:33.140Z,15.03
2018-12-14T01:34:03.517Z,14.00
2018-12-14T01:36:34.032Z,15.43
2018-12-14T01:39:06.635Z,15.40
2018-12-14T01:41:38.500Z,16.07
2018-12-14T01:44:10.064Z,20.63
2018-12-14T01:46:40.919Z,20.60
2018-12-14T01:49:13.200Z,20.00
2018-12-14T01:51:43.794Z,21.90
2018-12-14T01:54:14.380Z,33.40
2018-12-14T01:56:44.916Z,16.70
2018-12-14T01:59:15.314Z,18.50
2018-12-14T02:01:45.336Z,26.53
2018-12-14T02:04:15.709Z,18.70
2018-12-14T02:06:45.716Z,15.40
2018-12-14T02:09:17.566Z,15.83
2018-12-14T02:11:47.555Z,14.53
2018-12-14T02:14:18.110Z,15.50
2018-12-14T02:16:48.051Z,15.97
2018-12-14T02:19:19.333Z,14.97
2018-12-14T02:21:50.814Z,14.90
2018-12-14T02:24:22.470Z,15.70
2018-12-14T02:26:54.906Z,14.50
2018-12-14T02:29:26.277Z,15.13
2018-12-14T02:31:57.570Z,17.90
2018-12-14T02:34:29.514Z,13.80
2018-12-14T02:37:01.601Z,14.87
2018-12-14T02:39:32.666Z,20.43
2018-12-14T02:42:03.560Z,16.03
2018-12-14T02:44:35.287Z,15.67
2018-12-14T02:47:07.179Z,13.97
2018-12-14T02:49:39.819Z,15.27
2018-12-14T02:52:10.663Z,15.07
2018-12-14T02:54:41.459Z,16.43
2018-12-14T02:57:14.337Z,14.93
2018-12-14T02:59:45.210Z,14.30
2018-12-14T03:02:16.722Z,28.63
2018-12-14T03:04:47.325Z,23.60
2018-12-14T03:07:18.116Z,23.27
2018-12-14T03:09:49.929Z,22.50
2018-12-14T03:12:26.610Z,18.47
2018-12-14T03:14:54.221Z,30.90
2018-12-14T03:17:25.366Z,37.73
2018-12-14T03:19:57.035Z,21.30
2018-12-14T03:22:27.951Z,29.70
2018-12-14T03:24:59.855Z,19.10
2018-12-14T03:27:30.931Z,17.17
2018-12-14T03:30:03.620Z,17.67
2018-12-14T03:32:34.357Z,26.03
2018-12-14T03:35:06.109Z,32.43
2018-12-14T03:37:36.900Z,33.20
2018-12-14T03:40:07.738Z,17.77
2018-12-14T03:42:39.691Z,19.80
2018-12-14T03:45:12.130Z,22.60
2018-12-14T03:47:43.659Z,53.70
2018-12-14T03:50:15.112Z,49.80
2018-12-14T03:52:45.591Z,19.57
2018-12-14T03:55:17.364Z,26.27
2018-12-14T03:57:48.160Z,20.33
2018-12-14T04:00:18.613Z,24.83
2018-12-14T04:02:50.144Z,20.73
2018-12-14T04:05:21.816Z,19.80
2018-12-14T04:07:52.465Z,19.67
2018-12-14T04:10:25.016Z,30.67
2018-12-14T04:12:55.688Z,26.13
2018-12-14T04:15:27.213Z,19.03
2018-12-14T04:17:58.066Z,19.13
2018-12-14T04:20:28.835Z,19.87
2018-12-14T04:23:01.596Z,19.80
2018-12-14T04:25:32.400Z,19.47
2018-12-14T04:28:03.559Z,23.00
2018-12-14T04:30:34.275Z,18.90
2018-12-14T04:33:05.277Z,19.73
2018-12-14T04:35:36.354Z,20.17
2018-12-14T04:38:09.661Z,19.70
2018-12-14T04:40:41.042Z,19.97
2018-12-14T04:43:12.433Z,21.00
2018-12-14T04:45:42.973Z,19.57
2018-12-14T04:48:15.654Z,19.47
2018-12-14T04:50:45.926Z,18.53
2018-12-14T04:53:17.513Z,17.27
2018-12-14T04:55:48.158Z,16.90
2018-12-14T04:58:18.699Z,17.93
2018-12-14T05:00:50.155Z,19.87
2018-12-14T05:03:21.506Z,17.77
2018-12-14T05:05:51.911Z,18.30
2018-12-14T05:08:23.651Z,17.17
2018-12-14T05:10:56.195Z,17.67
2018-12-14T05:13:27.261Z,16.67
2018-12-14T05:15:58.347Z,16.00
2018-12-14T05:18:29.390Z,15.33
2018-12-14T05:21:00.001Z,15.43
2018-12-14T05:23:30.689Z,15.63
2018-12-14T05:26:01.918Z,16.47
2018-12-14T05:28:32.406Z,16.80
2018-12-14T05:31:02.976Z,16.40
2018-12-14T05:33:33.567Z,16.73
2018-12-14T05:36:04.511Z,16.40
2018-12-14T05:38:36.394Z,16.70
2018-12-14T05:41:07.242Z,16.97
2018-12-14T05:43:37.660Z,17.23
2018-12-14T05:46:08.554Z,22.40
2018-12-14T05:48:39.630Z,33.10
2018-12-14T05:51:10.801Z,24.73
2018-12-14T05:53:41.544Z,24.27
2018-12-14T05:56:12.436Z,26.43
2018-12-14T05:58:43.165Z,25.20
2018-12-14T06:01:14.488Z,26.50
2018-12-14T06:03:45.666Z,26.00
2018-12-14T06:06:16.502Z,25.87
2018-12-14T06:08:47.363Z,24.33
2018-12-14T06:11:19.068Z,24.37
2018-12-14T06:13:49.800Z,24.80
2018-12-14T06:16:20.698Z,23.27
2018-12-14T06:18:51.427Z,24.53
2018-12-14T06:21:22.307Z,25.00
2018-12-14T06:23:53.040Z,25.10
2018-12-14T06:26:23.944Z,25.77
2018-12-14T06:28:55.435Z,24.80
2018-12-14T06:31:26.872Z,25.13
2018-12-14T06:33:57.561Z,26.60
2018-12-14T06:36:29.077Z,26.10
2018-12-14T06:39:02.594Z,26.23
2018-12-14T06:41:33.154Z,26.27
2018-12-14T06:44:05.833Z,25.13
2018-12-14T06:46:36.553Z,25.13
2018-12-14T06:49:06.888Z,24.97
2018-12-14T06:51:38.326Z,25.77
2018-12-14T06:54:09.153Z,26.70
2018-12-14T06:56:39.784Z,24.30
2018-12-14T06:59:10.564Z,25.90
2018-12-14T07:01:42.443Z,25.07
2018-12-14T07:04:14.090Z,25.27
2018-12-14T07:06:45.368Z,25.20
2018-12-14T07:09:17.061Z,24.27
2018-12-14T07:11:49.582Z,24.20
2018-12-14T07:14:20.922Z,23.27
2018-12-14T07:16:52.757Z,20.90
2018-12-14T07:19:24.595Z,21.20
2018-12-14T07:21:55.856Z,20.20
2018-12-14T07:24:27.198Z,19.53
2018-12-14T07:26:58.125Z,18.70
2018-12-14T07:29:29.234Z,19.83
2018-12-14T07:32:00.084Z,19.83
2018-12-14T07:34:32.239Z,19.00
2018-12-14T07:37:03.031Z,18.63
2018-12-14T07:39:34.852Z,19.70
2018-12-14T07:42:06.578Z,20.57
2018-12-14T07:44:37.372Z,20.03
2018-12-14T07:47:11.644Z,19.23
2018-12-14T07:49:41.642Z,20.03
2018-12-14T07:52:12.860Z,19.30
2018-12-14T07:54:43.764Z,18.40
2018-12-14T07:57:14.854Z,18.93
2018-12-14T07:59:47.092Z,17.97
2018-12-14T08:02:19.320Z,18.37
2018-12-14T08:04:50.564Z,18.03
2018-12-14T08:07:22.710Z,18.83
2018-12-14T08:09:54.602Z,18.00
2018-12-14T08:12:27.096Z,17.67
2018-12-14T08:15:04.194Z,17.70
2018-12-14T08:17:36.791Z,23.10
2018-12-14T08:20:08.898Z,24.67
2018-12-14T08:22:40.770Z,30.67
2018-12-14T08:25:11.906Z,19.13
2018-12-14T08:27:43.549Z,19.40
2018-12-14T08:30:14.622Z,29.50
2018-12-14T08:32:45.832Z,23.73
2018-12-14T08:35:17.946Z,18.83
2018-12-14T08:37:48.744Z,19.37
2018-12-14T08:40:19.953Z,18.17
2018-12-14T08:42:51.550Z,24.07
2018-12-14T08:45:23.466Z,20.07
2018-12-14T08:47:54.662Z,21.63
2018-12-14T08:50:25.580Z,19.33
2018-12-14T08:52:56.536Z,19.80
2018-12-14T08:55:28.090Z,21.73
2018-12-14T08:57:59.272Z,29.25
2018-12-14T09:00:29.957Z,22.77
2018-12-14T09:03:00.936Z,21.77
2018-12-14T09:05:32.881Z,22.90
2018-12-14T09:08:03.644Z,20.50
2018-12-14T09:10:34.300Z,21.20
2018-12-14T09:13:05.588Z,21.10
2018-12-14T09:15:36.112Z,20.27
2018-12-14T09:18:07.177Z,23.47
2018-12-14T09:20:38.836Z,22.67
2018-12-14T09:23:09.848Z,21.13
2018-12-14T09:25:41.421Z,21.07
2018-12-14T09:28:12.612Z,21.73
2018-12-14T09:30:44.382Z,21.93
2018-12-14T09:33:15.405Z,20.30
2018-12-14T09:35:46.595Z,20.57
2018-12-14T09:38:17.859Z,21.77
2018-12-14T09:40:50.045Z,21.80
2018-12-14T09:43:21.219Z,24.07
2018-12-14T09:45:52.752Z,22.40
2018-12-14T09:48:24.445Z,21.70
2018-12-14T09:50:55.608Z,23.10
2018-12-14T09:53:26.255Z,23.00
2018-12-14T09:55:57.887Z,22.83
2018-12-14T09:58:29.671Z,21.20
2018-12-14T10:01:00.755Z,22.03
2018-12-14T10:03:31.652Z,20.83
2018-12-14T10:06:02.783Z,21.23
2018-12-14T10:08:34.667Z,21.07
2018-12-14T10:11:06.808Z,21.07
2018-12-14T10:13:37.492Z,20.80
2018-12-14T10:16:08.975Z,20.77
2018-12-14T10:18:40.050Z,20.67
2018-12-14T10:21:10.833Z,20.10
2018-12-14T10:23:41.494Z,21.00
2018-12-14T10:26:12.216Z,21.70
2018-12-14T10:28:43.932Z,21.07
2018-12-14T10:31:15.405Z,23.30
2018-12-14T10:33:48.906Z,21.33
2018-12-14T10:36:22.789Z,21.60
2018-12-14T10:38:54.390Z,20.07
2018-12-14T10:41:27.634Z,20.23
2018-12-14T10:44:07.246Z,20.30
2018-12-14T10:46:36.610Z,23.97
2018-12-14T10:49:10.427Z,18.83
2018-12-14T10:51:44.056Z,19.00
2018-12-14T10:54:17.429Z,19.40
2018-12-14T10:56:49.974Z,19.70
2018-12-14T10:59:23.216Z,20.53
2018-12-14T11:01:57.264Z,18.93
2018-12-14T11:04:27.466Z,21.30
2018-12-14T11:06:57.512Z,18.60
2018-12-14T11:09:27.629Z,19.37
2018-12-14T11:11:57.682Z,19.30
2018-12-14T11:14:28.384Z,19.83
2018-12-14T11:16:58.887Z,19.07
2018-12-14T11:19:29.350Z,18.93
2018-12-14T11:21:59.420Z,18.40
2018-12-14T11:24:31.355Z,19.90
2018-12-14T11:27:02.234Z,18.17
2018-12-14T11:29:32.885Z,18.57
2018-12-14T11:32:03.183Z,18.17
2018-12-14T11:34:33.386Z,17.67
2018-12-14T11:37:03.365Z,18.07
2018-12-14T11:39:34.200Z,18.17
2018-12-14T11:42:04.630Z,17.43
2018-12-14T11:44:34.716Z,17.87
2018-12-14T11:47:04.761Z,18.77
2018-12-14T11:49:36.159Z,18.73
2018-12-14T11:52:36.196Z,18.03
2018-12-14T11:55:12.082Z,17.43
2018-12-14T11:57:42.426Z,18.10
2018-12-14T12:00:14.715Z,18.77
2018-12-14T12:02:44.988Z,18.87
2018-12-14T12:05:16.020Z,18.57
2018-12-14T12:07:46.684Z,17.80
2018-12-14T12:10:16.600Z,16.93
2018-12-14T12:12:47.338Z,16.97
2018-12-14T12:15:17.710Z,17.07
2018-12-14T12:17:49.559Z,17.60
2018-12-14T12:20:19.975Z,17.80
2018-12-14T12:22:50.426Z,17.37
2018-12-14T12:25:21.433Z,16.57
2018-12-14T12:27:51.922Z,16.03
2018-12-14T12:30:22.294Z,16.70
2018-12-14T12:32:53.252Z,16.33
2018-12-14T12:35:23.956Z,16.60
2018-12-14T12:37:55.216Z,15.33
2018-12-14T12:40:27.071Z,16.73
2018-12-14T12:42:58.055Z,15.53
2018-12-14T12:45:28.460Z,14.93
2018-12-14T12:47:58.639Z,16.20
2018-12-14T12:50:30.261Z,15.30
2018-12-14T12:53:01.492Z,14.73
2018-12-14T12:55:31.860Z,15.10
2018-12-14T12:58:03.729Z,15.70
2018-12-14T13:00:34.432Z,14.73
2018-12-14T13:03:04.808Z,14.77
2018-12-14T13:05:35.147Z,14.63
2018-12-14T13:08:05.938Z,13.70
2018-12-14T13:10:36.111Z,14.20
2018-12-14T13:13:06.685Z,14.47
2018-12-14T13:15:36.817Z,14.37
2018-12-14T13:18:07.245Z,13.93
2018-12-14T13:20:37.471Z,13.17
2018-12-14T13:23:07.610Z,14.87
2018-12-14T13:25:37.865Z,13.17
2018-12-14T13:28:09.006Z,12.93
2018-12-14T13:30:39.804Z,14.03
2018-12-14T13:33:10.360Z,12.67
2018-12-14T13:35:40.630Z,12.53
2018-12-14T13:38:11.825Z,12.73
2018-12-14T13:40:42.060Z,13.87
2018-12-14T13:43:12.500Z,13.20
2018-12-14T13:45:43.413Z,13.90
2018-12-14T13:48:13.671Z,12.77
2018-12-14T13:50:43.874Z,18.40
2018-12-14T13:53:15.498Z,14.13
2018-12-14T13:55:45.802Z,15.97
2018-12-14T13:58:15.807Z,12.77
2018-12-14T14:00:46.484Z,13.77
2018-12-14T14:03:16.605Z,14.70
2018-12-14T14:05:46.883Z,13.37
2018-12-14T14:08:17.973Z,13.80
2018-12-14T14:10:48.456Z,13.07
2018-12-14T14:13:18.906Z,11.27
2018-12-14T14:15:50.827Z,12.63
2018-12-14T14:18:22.346Z,13.20
2018-12-14T14:20:52.830Z,13.03
2018-12-14T14:23:23.606Z,13.20
2018-12-14T14:25:53.752Z,14.43
2018-12-14T14:28:24.590Z,14.43
2018-12-14T14:30:55.190Z,14.77
2018-12-14T14:33:26.572Z,12.57
2018-12-14T14:35:57.522Z,11.53
2018-12-14T14:38:27.631Z,11.27
2018-12-14T14:40:58.975Z,8.17
2018-12-14T14:43:31.035Z,9.20
2018-12-14T14:46:01.776Z,8.53
2018-12-14T14:48:32.699Z,9.47
2018-12-14T14:51:05.082Z,8.33
2018-12-14T14:53:35.325Z,8.07
2018-12-14T14:56:05.548Z,7.60
2018-12-14T14:58:35.960Z,6.50
2018-12-14T15:01:05.979Z,7.57
2018-12-14T15:03:36.095Z,6.60
2018-12-14T15:06:06.406Z,7.83
2018-12-14T15:08:36.831Z,6.77
2018-12-14T15:11:07.721Z,7.30
2018-12-14T15:13:38.037Z,7.10
2018-12-14T15:16:09.984Z,7.40
2018-12-14T15:18:40.489Z,7.27
2018-12-14T15:21:10.730Z,8.80
2018-12-14T15:23:41.448Z,8.80
2018-12-14T15:26:11.920Z,8.27
2018-12-14T15:28:42.100Z,8.63
2018-12-14T15:31:12.397Z,8.60
2018-12-14T15:33:42.797Z,7.77
2018-12-14T15:36:13.814Z,8.50
2018-12-14T15:38:46.121Z,9.40
2018-12-14T15:41:16.348Z,9.87
2018-12-14T15:43:47.231Z,8.30
2018-12-14T15:46:17.297Z,9.87
2018-12-14T15:48:48.053Z,8.77
2018-12-14T15:51:18.297Z,9.17
2018-12-14T15:53:49.081Z,10.50
2018-12-14T15:56:19.430Z,10.20
2018-12-14T15:58:51.546Z,10.33
2018-12-14T16:01:21.867Z,9.67
2018-12-14T16:03:52.139Z,9.57
2018-12-14T16:06:22.422Z,9.83
2018-12-14T16:08:52.679Z,9.33
2018-12-14T16:11:24.113Z,9.67
2018-12-14T16:13:54.958Z,9.23
2018-12-14T16:16:25.176Z,10.70
2018-12-14T16:18:55.325Z,13.27
2018-12-14T16:21:25.628Z,12.37
2018-12-14T16:23:57.773Z,11.73
2018-12-14T16:26:27.625Z,11.90
2018-12-14T16:28:57.808Z,10.77
2018-12-14T16:31:28.573Z,9.93
2018-12-14T16:33:59.291Z,10.40
2018-12-14T16:36:29.242Z,10.30
2018-12-14T16:39:00.603Z,12.40
2018-12-14T16:41:32.604Z,10.87
2018-12-14T16:44:03.447Z,11.57
2018-12-14T16:46:34.345Z,9.80
2018-12-14T16:49:04.630Z,10.17
2018-12-14T16:51:34.738Z,11.50
2018-12-14T16:54:06.893Z,11.27
2018-12-14T16:56:37.438Z,11.47
2018-12-14T16:59:07.448Z,11.43
2018-12-14T17:01:37.649Z,13.53
2018-12-14T17:04:08.515Z,12.97
2018-12-14T17:06:39.388Z,12.07
2018-12-14T17:09:11.219Z,12.77
2018-12-14T17:11:41.571Z,15.07
2018-12-14T17:14:11.680Z,15.87
2018-12-14T17:16:42.172Z,14.77
2018-12-14T17:19:12.849Z,15.07
2018-12-14T17:21:43.253Z,14.53
2018-12-14T17:24:13.794Z,15.07
2018-12-14T17:26:43.979Z,15.90
2018-12-14T17:29:14.662Z,16.50
2018-12-14T17:31:45.196Z,16.83
2018-12-14T17:34:15.788Z,16.27
2018-12-14T17:36:46.858Z,15.93
2018-12-14T17:39:19.100Z,17.17
2018-12-14T17:41:51.742Z,17.17
2018-12-14T17:44:21.912Z,17.50
2018-12-14T17:46:53.230Z,16.93
2018-12-14T17:49:23.331Z,17.13
2018-12-14T17:51:54.009Z,17.27
2018-12-14T17:54:24.492Z,18.77
2018-12-14T17:56:55.244Z,18.57
2018-12-14T17:59:25.568Z,20.17
2018-12-14T18:01:57.786Z,18.87
2018-12-14T18:04:27.995Z,18.73
2018-12-14T18:06:59.412Z,18.20
2018-12-14T18:09:30.838Z,17.73
2018-12-14T18:12:00.964Z,16.80
2018-12-14T18:14:31.691Z,17.80
2018-12-14T18:17:01.862Z,17.80
2018-12-14T18:19:32.565Z,17.80
2018-12-14T18:22:03.388Z,18.07
2018-12-14T18:24:34.199Z,17.97
2018-12-14T18:27:05.778Z,17.97
2018-12-14T18:29:36.076Z,18.57
2018-12-14T18:32:07.409Z,23.87
2018-12-14T18:34:37.555Z,22.33
2018-12-14T18:37:07.813Z,20.43
2018-12-14T18:39:38.515Z,17.33
2018-12-14T18:42:08.620Z,17.67
2018-12-14T18:44:39.713Z,18.70
2018-12-14T18:47:09.842Z,21.77
2018-12-14T18:49:39.945Z,20.60
2018-12-14T18:52:10.105Z,21.97
2018-12-14T18:54:40.160Z,20.53
2018-12-14T18:57:11.032Z,22.00
2018-12-14T18:59:41.189Z,21.87
2018-12-14T19:02:11.487Z,23.30
2018-12-14T19:04:42.399Z,24.10
2018-12-14T19:07:14.196Z,24.20
2018-12-14T19:09:44.668Z,22.70
2018-12-14T19:12:14.786Z,23.97
2018-12-14T19:14:44.965Z,24.23
2018-12-14T19:17:16.190Z,24.40
2018-12-14T19:19:46.404Z,24.87
2018-12-14T19:22:16.474Z,24.40
2018-12-14T19:24:47.183Z,23.67
2018-12-14T19:27:18.461Z,22.40
2018-12-14T19:29:48.634Z,21.53
2018-12-14T19:32:20.523Z,22.83
2018-12-14T19:34:50.806Z,21.47
2018-12-14T19:37:21.087Z,23.50
2018-12-14T19:39:51.593Z,24.37
2018-12-14T19:42:21.637Z,24.90
2018-12-14T19:44:52.047Z,26.23
2018-12-14T19:47:24.959Z,26.73
2018-12-14T19:49:55.551Z,26.03
2018-12-14T19:52:26.994Z,24.53
2018-12-14T19:54:59.349Z,24.03
2018-12-14T19:57:29.729Z,23.67
2018-12-14T20:00:00.599Z,23.13
2018-12-14T20:02:30.995Z,22.93
2018-12-14T20:05:01.163Z,21.33
2018-12-14T20:07:31.218Z,21.80
2018-12-14T20:10:01.439Z,22.30
2018-12-14T20:12:31.858Z,21.57
2018-12-14T20:15:08.333Z,21.30
2018-12-14T20:17:39.493Z,20.30
2018-12-14T20:20:09.689Z,22.00
2018-12-14T20:22:40.218Z,20.80
2018-12-14T20:25:10.928Z,21.87
2018-12-14T20:27:41.610Z,19.60
2018-12-14T20:30:12.250Z,18.63
2018-12-14T20:32:42.418Z,17.57
2018-12-14T20:35:12.702Z,17.13
2018-12-14T20:37:44.558Z,17.10
2018-12-14T20:40:14.506Z,17.10
2018-12-14T20:42:44.805Z,17.10
2018-12-14T20:45:15.874Z,15.17
2018-12-14T20:47:46.125Z,14.73
2018-12-14T20:50:16.609Z,16.23
2018-12-14T20:52:46.739Z,15.47
2018-12-14T20:55:16.953Z,15.33
2018-12-14T20:57:47.065Z,16.70
2018-12-14T21:00:17.311Z,15.73
2018-12-14T21:02:48.117Z,15.53
2018-12-14T21:05:19.710Z,18.30
2018-12-14T21:07:50.571Z,17.97
2018-12-14T21:10:22.104Z,18.87
2018-12-14T21:12:52.530Z,18.73
2018-12-14T21:15:30.139Z,18.07
2018-12-14T21:18:00.481Z,19.13
2018-12-14T21:20:30.719Z,19.77
2018-12-14T21:23:01.381Z,19.83
2018-12-14T21:25:32.126Z,20.07
2018-12-14T21:28:02.231Z,21.80
2018-12-14T21:30:32.362Z,21.80
2018-12-14T21:33:03.291Z,22.27
2018-12-14T21:35:34.395Z,23.07
2018-12-14T21:38:04.957Z,24.17
2018-12-14T21:40:35.293Z,21.93
2018-12-14T21:43:05.925Z,22.60
2018-12-14T21:45:36.105Z,20.07
2018-12-14T21:48:06.741Z,22.10
2018-12-14T21:50:36.962Z,21.03
2018-12-14T21:53:14.275Z,22.63
2018-12-14T21:55:39.775Z,21.90
2018-12-14T21:58:10.267Z,22.57
2018-12-14T22:00:41.087Z,21.83
2018-12-14T22:03:11.242Z,22.53
2018-12-14T22:05:41.564Z,22.00
2018-12-14T22:08:13.550Z,22.57
2018-12-14T22:10:43.640Z,21.90
2018-12-14T22:13:13.975Z,22.20
2018-12-14T22:15:44.306Z,21.63
2018-12-14T22:18:14.536Z,22.07
2018-12-14T22:20:45.802Z,22.60
2018-12-14T22:23:17.995Z,22.27
2018-12-14T22:25:48.118Z,23.00
2018-12-14T22:28:18.273Z,21.40
2018-12-14T22:30:48.358Z,22.53
2018-12-14T22:33:18.375Z,22.40
2018-12-14T22:35:48.392Z,22.63
2018-12-14T22:38:19.450Z,22.80
2018-12-14T22:40:49.614Z,24.17
2018-12-14T22:43:21.156Z,22.37
2018-12-14T22:45:51.389Z,22.07
2018-12-14T22:48:22.211Z,21.83
2018-12-14T22:50:52.583Z,20.13
2018-12-14T22:53:23.335Z,21.07
2018-12-14T22:55:53.556Z,20.00
2018-12-14T22:58:25.359Z,20.47
2018-12-14T23:00:56.218Z,19.93
2018-12-14T23:03:26.361Z,19.50
2018-12-14T23:05:57.211Z,20.57
2018-12-14T23:08:28.564Z,21.07
2018-12-14T23:10:58.896Z,21.00
2018-12-14T23:13:29.213Z,20.60
2018-12-14T23:16:00.561Z,19.67
2018-12-14T23:18:32.354Z,20.10
2018-12-14T23:21:02.697Z,19.53
2018-12-14T23:23:34.313Z,20.43
2018-12-14T23:26:05.852Z,20.47
2018-12-14T23:28:37.715Z,20.30
2018-12-14T23:31:08.038Z,20.90
2018-12-14T23:33:38.552Z,20.17
2018-12-14T23:36:08.896Z,20.27
2018-12-14T23:38:40.275Z,20.57
2018-12-14T23:41:10.490Z,19.73
2018-12-14T23:43:40.700Z,18.43
2018-12-14T23:46:11.284Z,18.77
2018-12-14T23:48:42.098Z,18.67
2018-12-14T23:51:13.208Z,20.60
2018-12-14T23:53:44.454Z,21.33
2018-12-14T23:56:14.717Z,20.50
2018-12-14T23:58:44.856Z,20.07
